createdAt,value
2017-11-20T00:00:13.626Z,4.30
2017-11-20T00:02:48.409Z,4.40
2017-11-20T00:05:23.011Z,4.40
2017-11-20T00:07:58.214Z,4.30
2017-11-20T00:10:32.227Z,4.40
2017-11-20T00:13:06.934Z,4.40
2017-11-20T00:15:40.566Z,4.40
2017-11-20T00:18:14.309Z,4.40
2017-11-20T00:20:48.851Z,4.40
2017-11-20T00:23:23.400Z,4.40
2017-11-20T00:25:57.063Z,4.40
2017-11-20T00:28:30.772Z,4.40
2017-11-20T00:31:04.489Z,4.40
2017-11-20T00:33:38.153Z,4.30
2017-11-20T00:36:11.754Z,4.30
2017-11-20T00:38:45.452Z,4.30
2017-11-20T00:41:19.759Z,4.30
2017-11-20T00:43:54.461Z,4.30
2017-11-20T00:46:28.990Z,4.30
2017-11-20T00:49:02.818Z,4.30
2017-11-20T00:51:36.813Z,4.30
2017-11-20T00:54:11.363Z,4.30
2017-11-20T00:56:48.152Z,4.30
2017-11-20T00:59:21.800Z,4.30
2017-11-20T01:01:55.730Z,4.30
2017-11-20T01:04:29.558Z,4.30
2017-11-20T01:07:03.411Z,4.30
2017-11-20T01:09:36.967Z,4.30
2017-11-20T01:12:11.038Z,4.30
2017-11-20T01:14:44.762Z,4.30
2017-11-20T01:17:18.491Z,4.30
2017-11-20T01:19:52.294Z,4.20
2017-11-20T01:22:26.030Z,4.20
2017-11-20T01:24:59.805Z,4.20
2017-11-20T01:27:33.563Z,4.10
2017-11-20T01:30:07.238Z,4.10
2017-11-20T01:32:40.979Z,4.10
2017-11-20T01:35:15.672Z,4.10
2017-11-20T01:37:49.448Z,4.10
2017-11-20T01:40:23.209Z,4.10
2017-11-20T01:42:56.890Z,4.10
2017-11-20T01:45:30.687Z,4.10
2017-11-20T01:48:05.221Z,4.10
2017-11-20T01:50:38.842Z,4.10
2017-11-20T01:53:12.631Z,4.10
2017-11-20T01:55:46.384Z,4.10
2017-11-20T01:58:20.145Z,4.00
2017-11-20T02:00:53.859Z,4.00
2017-11-20T02:03:27.690Z,3.90
2017-11-20T02:06:01.634Z,3.80
2017-11-20T02:08:35.509Z,3.90
2017-11-20T02:11:09.249Z,3.90
2017-11-20T02:13:43.079Z,3.90
2017-11-20T02:16:16.862Z,3.80
2017-11-20T02:18:50.656Z,3.80
2017-11-20T02:21:24.327Z,3.80
2017-11-20T02:23:58.199Z,3.80
2017-11-20T02:26:31.804Z,3.80
2017-11-20T02:29:05.567Z,3.80
2017-11-20T02:31:39.290Z,3.90
2017-11-20T02:34:13.091Z,3.80
2017-11-20T02:36:46.788Z,3.80
2017-11-20T02:39:20.437Z,3.90
2017-11-20T02:41:54.210Z,3.80
2017-11-20T02:44:27.945Z,3.80
2017-11-20T02:47:01.682Z,3.80
2017-11-20T02:49:36.187Z,3.80
2017-11-20T02:52:10.489Z,3.80
2017-11-20T02:54:44.299Z,3.80
2017-11-20T02:57:18.014Z,3.80
2017-11-20T02:59:53.235Z,3.80
2017-11-20T03:02:26.850Z,3.80
2017-11-20T03:05:00.643Z,3.80
2017-11-20T03:07:34.306Z,3.90
2017-11-20T03:10:08.129Z,4.00
2017-11-20T03:12:42.637Z,4.10
2017-11-20T03:15:17.064Z,4.10
2017-11-20T03:17:50.783Z,4.20
2017-11-20T03:20:24.582Z,4.20
2017-11-20T03:22:58.243Z,4.30
2017-11-20T03:25:32.705Z,4.30
2017-11-20T03:28:06.403Z,4.30
2017-11-20T03:30:40.186Z,4.40
2017-11-20T03:33:13.995Z,4.50
2017-11-20T03:35:47.744Z,4.50
2017-11-20T03:38:21.433Z,4.50
2017-11-20T03:40:55.976Z,4.60
2017-11-20T03:43:29.648Z,4.60
2017-11-20T03:46:03.365Z,4.60
2017-11-20T03:48:37.327Z,4.70
2017-11-20T03:51:11.126Z,4.70
2017-11-20T03:53:44.805Z,4.70
2017-11-20T03:56:19.085Z,4.70
2017-11-20T03:58:52.695Z,4.70
2017-11-20T04:01:26.494Z,4.70
2017-11-20T04:04:00.208Z,4.70
2017-11-20T04:06:33.952Z,4.60
2017-11-20T04:09:07.702Z,4.60
2017-11-20T04:11:41.538Z,4.60
2017-11-20T04:14:15.202Z,4.70
2017-11-20T04:16:48.926Z,4.70
2017-11-20T04:19:22.611Z,4.70
2017-11-20T04:21:56.366Z,4.60
2017-11-20T04:24:31.008Z,4.70
2017-11-20T04:27:04.721Z,4.70
2017-11-20T04:29:38.386Z,4.70
2017-11-20T04:32:12.213Z,4.70
2017-11-20T04:34:45.974Z,4.70
2017-11-20T04:37:19.789Z,4.70
2017-11-20T04:39:53.584Z,4.70
2017-11-20T04:42:27.293Z,4.70
2017-11-20T04:45:01.130Z,4.70
2017-11-20T04:47:34.851Z,4.70
2017-11-20T04:50:09.357Z,4.70
2017-11-20T04:52:43.778Z,4.70
2017-11-20T04:55:17.409Z,4.70
2017-11-20T04:57:51.315Z,4.70
2017-11-20T05:00:25.066Z,4.80
2017-11-20T05:02:58.906Z,4.80
2017-11-20T05:05:32.605Z,4.80
2017-11-20T05:08:07.857Z,4.70
2017-11-20T05:10:41.620Z,4.70
2017-11-20T05:13:15.410Z,4.70
2017-11-20T05:15:49.103Z,4.70
2017-11-20T05:18:22.842Z,4.70
2017-11-20T05:20:56.624Z,4.70
2017-11-20T05:23:30.474Z,4.70
2017-11-20T05:26:04.153Z,4.70
2017-11-20T05:28:38.722Z,4.80
2017-11-20T05:31:12.520Z,4.80
2017-11-20T05:33:47.067Z,4.80
2017-11-20T05:36:20.797Z,4.80
2017-11-20T05:38:54.555Z,4.80
2017-11-20T05:41:29.064Z,4.80
2017-11-20T05:44:03.686Z,4.90
2017-11-20T05:46:37.395Z,4.80
2017-11-20T05:49:11.194Z,4.90
2017-11-20T05:51:44.986Z,4.90
2017-11-20T05:54:18.705Z,4.90
2017-11-20T05:56:52.409Z,4.90
2017-11-20T05:59:26.675Z,4.90
2017-11-20T06:02:00.419Z,4.90
2017-11-20T06:04:34.005Z,4.90
2017-11-20T06:07:07.926Z,4.90
2017-11-20T06:09:42.535Z,4.90
2017-11-20T06:12:17.086Z,4.90
2017-11-20T06:14:52.351Z,4.90
2017-11-20T06:17:26.343Z,4.90
2017-11-20T06:20:00.937Z,4.90
2017-11-20T06:22:36.139Z,4.90
2017-11-20T06:25:10.198Z,4.90
2017-11-20T06:27:43.974Z,4.80
2017-11-20T06:30:17.914Z,4.80
2017-11-20T06:32:51.653Z,4.80
2017-11-20T06:35:26.374Z,4.80
2017-11-20T06:38:00.094Z,4.80
2017-11-20T06:40:34.342Z,4.80
2017-11-20T06:43:09.224Z,4.90
2017-11-20T06:45:42.961Z,4.90
2017-11-20T06:48:18.422Z,4.90
2017-11-20T06:50:52.207Z,4.90
2017-11-20T06:53:26.137Z,4.90
2017-11-20T06:55:59.758Z,4.90
2017-11-20T06:58:33.488Z,4.90
2017-11-20T07:01:07.240Z,4.90
2017-11-20T07:03:41.733Z,4.90
2017-11-20T07:06:16.145Z,4.90
2017-11-20T07:08:49.806Z,4.90
2017-11-20T07:11:23.731Z,4.90
2017-11-20T07:13:58.287Z,4.80
2017-11-20T07:16:32.265Z,4.80
2017-11-20T07:19:05.856Z,4.80
2017-11-20T07:21:39.579Z,4.80
2017-11-20T07:24:13.194Z,4.80
2017-11-20T07:26:58.909Z,4.80
2017-11-20T07:29:58.211Z,4.80
2017-11-20T07:32:32.063Z,4.80
2017-11-20T07:35:15.558Z,4.80
2017-11-20T07:38:00.915Z,4.80
2017-11-20T07:40:46.410Z,4.80
2017-11-20T07:43:20.220Z,4.80
2017-11-20T07:45:53.978Z,4.80
2017-11-20T07:48:28.458Z,4.90
2017-11-20T07:51:02.421Z,4.90
2017-11-20T07:53:37.945Z,4.90
2017-11-20T07:56:11.753Z,4.90
2017-11-20T07:58:46.248Z,5.00
2017-11-20T08:01:19.985Z,5.00
2017-11-20T08:03:53.762Z,5.00
2017-11-20T08:06:27.502Z,5.00
2017-11-20T08:09:01.996Z,5.10
2017-11-20T08:11:36.229Z,5.10
2017-11-20T08:14:09.911Z,5.10
2017-11-20T08:16:44.937Z,5.20
2017-11-20T08:19:19.492Z,5.20
2017-11-20T08:21:53.222Z,5.20
2017-11-20T08:24:26.967Z,5.30
2017-11-20T08:27:01.570Z,5.30
2017-11-20T08:29:35.237Z,5.30
2017-11-20T08:32:09.723Z,5.40
2017-11-20T08:34:43.311Z,5.40
2017-11-20T08:37:17.099Z,5.40
2017-11-20T08:39:50.986Z,5.50
2017-11-20T08:42:25.339Z,5.50
2017-11-20T08:44:59.045Z,5.50
2017-11-20T08:47:32.786Z,5.50
2017-11-20T08:50:06.553Z,5.50
2017-11-20T08:52:40.303Z,5.60
2017-11-20T08:55:13.982Z,5.60
2017-11-20T08:57:47.959Z,5.60
2017-11-20T09:00:21.753Z,5.70
2017-11-20T09:02:55.510Z,5.70
2017-11-20T09:05:29.220Z,5.80
2017-11-20T09:08:03.028Z,5.80
2017-11-20T09:10:36.691Z,5.90
2017-11-20T09:13:11.230Z,5.90
2017-11-20T09:15:44.930Z,5.90
2017-11-20T09:18:18.593Z,5.90
2017-11-20T09:20:52.433Z,5.90
2017-11-20T09:23:26.164Z,5.90
2017-11-20T09:25:59.981Z,5.90
2017-11-20T09:28:33.665Z,5.90
2017-11-20T09:31:07.499Z,5.90
2017-11-20T09:33:41.110Z,5.90
2017-11-20T09:36:15.610Z,6.00
2017-11-20T09:38:49.210Z,5.90
2017-11-20T09:41:24.324Z,5.90
2017-11-20T09:43:58.005Z,5.80
2017-11-20T09:46:32.302Z,5.70
2017-11-20T09:49:06.007Z,5.70
2017-11-20T09:51:39.770Z,5.60
2017-11-20T09:54:13.466Z,5.60
2017-11-20T09:56:47.129Z,5.60
2017-11-20T09:59:20.719Z,5.60
2017-11-20T10:01:54.484Z,5.60
2017-11-20T10:04:28.291Z,5.60
2017-11-20T10:07:02.123Z,5.60
2017-11-20T10:09:35.823Z,5.50
2017-11-20T10:12:09.618Z,5.60
2017-11-20T10:14:44.108Z,5.50
2017-11-20T10:17:17.950Z,5.50
2017-11-20T10:19:52.387Z,5.50
2017-11-20T10:22:26.899Z,5.40
2017-11-20T10:25:00.660Z,5.40
2017-11-20T10:27:34.403Z,5.40
2017-11-20T10:30:08.010Z,5.50
2017-11-20T10:32:42.459Z,5.50
2017-11-20T10:35:16.248Z,5.50
2017-11-20T10:37:50.683Z,5.70
2017-11-20T10:40:25.033Z,5.70
2017-11-20T10:42:58.772Z,5.70
2017-11-20T10:45:32.507Z,5.80
2017-11-20T10:48:06.234Z,5.90
2017-11-20T10:50:39.945Z,5.90
2017-11-20T10:53:13.611Z,6.00
2017-11-20T10:55:47.323Z,6.00
2017-11-20T10:58:21.065Z,6.00
2017-11-20T11:00:54.877Z,6.00
2017-11-20T11:03:28.727Z,6.00
2017-11-20T11:06:02.474Z,6.00
2017-11-20T11:08:36.263Z,6.00
2017-11-20T11:11:10.012Z,6.00
2017-11-20T11:13:43.796Z,6.00
2017-11-20T11:16:18.388Z,5.80
2017-11-20T11:18:52.078Z,5.80
2017-11-20T11:21:25.796Z,5.80
2017-11-20T11:23:59.487Z,5.70
2017-11-20T11:26:33.260Z,5.70
2017-11-20T11:29:06.895Z,5.80
2017-11-20T11:31:40.759Z,5.80
2017-11-20T11:34:14.378Z,5.80
2017-11-20T11:36:48.014Z,5.60
2017-11-20T11:39:21.758Z,5.60
2017-11-20T11:41:56.174Z,5.60
2017-11-20T11:44:29.841Z,5.40
2017-11-20T11:47:03.403Z,5.40
2017-11-20T11:49:37.113Z,5.40
2017-11-20T11:52:10.957Z,5.50
2017-11-20T11:54:44.597Z,5.40
2017-11-20T11:57:18.367Z,5.40
2017-11-20T11:59:52.143Z,5.40
2017-11-20T12:02:25.945Z,5.40
2017-11-20T12:04:59.749Z,5.30
2017-11-20T12:07:34.235Z,5.20
2017-11-20T12:10:07.959Z,5.20
2017-11-20T12:12:41.768Z,5.20
2017-11-20T12:15:15.526Z,5.20
2017-11-20T12:17:49.248Z,5.30
2017-11-20T12:20:23.018Z,5.30
2017-11-20T12:22:56.802Z,5.20
2017-11-20T12:25:30.474Z,5.20
2017-11-20T12:28:04.967Z,5.10
2017-11-20T12:30:38.697Z,5.10
2017-11-20T12:33:13.208Z,5.10
2017-11-20T12:35:46.805Z,5.10
2017-11-20T12:38:20.511Z,5.00
2017-11-20T12:40:54.268Z,4.90
2017-11-20T12:43:27.816Z,4.90
2017-11-20T12:46:01.539Z,4.90
2017-11-20T12:48:36.052Z,4.80
2017-11-20T12:51:10.474Z,4.80
2017-11-20T12:53:44.070Z,4.80
2017-11-20T12:56:17.854Z,4.80
2017-11-20T12:58:51.684Z,4.80
2017-11-20T13:01:25.394Z,4.80
2017-11-20T13:03:58.953Z,4.90
2017-11-20T13:06:33.162Z,4.90
2017-11-20T13:09:07.713Z,5.00
2017-11-20T13:11:42.256Z,5.00
2017-11-20T13:14:16.052Z,5.00
2017-11-20T13:16:50.678Z,4.90
2017-11-20T13:19:24.276Z,4.90
2017-11-20T13:21:58.834Z,5.00
2017-11-20T13:24:33.323Z,5.00
2017-11-20T13:27:09.528Z,5.00
2017-11-20T13:29:44.110Z,5.00
2017-11-20T13:32:18.530Z,5.00
2017-11-20T13:34:52.589Z,5.00
2017-11-20T13:37:26.387Z,5.00
2017-11-20T13:40:00.345Z,4.90
2017-11-20T13:42:34.404Z,4.90
2017-11-20T13:45:08.026Z,4.90
2017-11-20T13:47:41.794Z,4.90
2017-11-20T13:50:15.537Z,5.00
2017-11-20T13:52:49.385Z,5.00
2017-11-20T13:55:23.026Z,5.00
2017-11-20T13:57:56.632Z,5.00
2017-11-20T14:00:33.383Z,5.00
2017-11-20T14:03:06.978Z,4.90
2017-11-20T14:05:40.773Z,4.80
2017-11-20T14:08:14.523Z,4.90
2017-11-20T14:10:48.229Z,4.80
2017-11-20T14:13:22.881Z,4.80
2017-11-20T14:15:56.773Z,4.80
2017-11-20T14:18:30.459Z,4.80
2017-11-20T14:21:04.891Z,4.80
2017-11-20T14:23:44.276Z,4.80
2017-11-20T14:26:24.038Z,4.80
2017-11-20T14:31:58.132Z,4.70
2017-11-20T14:34:39.625Z,4.70
2017-11-20T14:37:20.246Z,4.70
2017-11-20T14:39:55.788Z,4.70
2017-11-20T14:45:30.579Z,4.70
2017-11-20T14:48:25.522Z,4.60
2017-11-20T14:56:25.358Z,4.60
2017-11-20T14:59:02.861Z,4.60
2017-11-20T15:01:38.511Z,4.50
2017-11-20T15:04:14.357Z,4.50
2017-11-20T15:06:48.976Z,4.50
2017-11-20T15:12:03.637Z,4.40
2017-11-20T15:14:38.290Z,4.40
2017-11-20T15:20:02.722Z,4.30
2017-11-20T15:22:45.024Z,4.20
2017-11-20T15:25:22.405Z,4.20
2017-11-20T15:27:57.762Z,4.10
2017-11-20T15:30:33.817Z,4.10
2017-11-20T15:33:08.371Z,4.10
2017-11-20T15:35:44.886Z,4.10
2017-11-20T15:40:58.587Z,4.20
2017-11-20T15:46:16.805Z,4.20
2017-11-20T15:51:34.424Z,4.10
2017-11-20T15:54:09.321Z,4.10
2017-11-20T15:56:45.805Z,4.10
2017-11-20T15:59:20.333Z,4.20
2017-11-20T16:01:56.499Z,4.20
2017-11-20T16:04:36.796Z,4.10
2017-11-20T16:09:54.385Z,4.20
2017-11-20T16:12:28.957Z,4.20
2017-11-20T16:15:22.914Z,4.20
2017-11-20T16:17:59.887Z,4.20
2017-11-20T16:23:15.717Z,4.20
2017-11-20T16:26:05.805Z,4.30
2017-11-20T16:28:41.159Z,4.30
2017-11-20T16:31:20.620Z,4.30
2017-11-20T16:43:05.754Z,4.30
2017-11-20T16:45:43.435Z,4.30
2017-11-20T16:48:17.039Z,4.40
2017-11-20T16:50:51.459Z,4.30
2017-11-20T16:53:25.322Z,4.30
2017-11-20T16:56:03.384Z,4.40
2017-11-20T16:58:48.991Z,4.30
2017-11-20T17:01:41.660Z,4.30
2017-11-20T17:04:17.923Z,4.30
2017-11-20T17:06:51.847Z,4.30
2017-11-20T17:09:25.957Z,4.30
2017-11-20T17:20:42.278Z,4.30
2017-11-20T17:23:18.591Z,4.30
2017-11-20T17:25:53.360Z,4.30
2017-11-20T17:28:29.720Z,4.30
2017-11-20T17:31:08.729Z,4.30
2017-11-20T17:33:45.118Z,4.40
2017-11-20T17:36:24.246Z,4.40
2017-11-20T17:38:58.402Z,4.40
2017-11-20T17:41:40.410Z,4.40
2017-11-20T17:44:35.263Z,4.40
2017-11-20T17:47:09.139Z,4.40
2017-11-20T17:49:43.903Z,4.40
2017-11-20T17:52:19.025Z,4.40
2017-11-20T17:54:53.005Z,4.40
2017-11-20T17:57:29.363Z,4.40
2017-11-20T18:00:07.469Z,4.40
2017-11-20T18:02:41.526Z,4.40
2017-11-20T18:05:16.324Z,4.40
2017-11-20T18:07:50.115Z,4.40
2017-11-20T18:10:24.957Z,4.40
2017-11-20T18:12:58.946Z,4.40
2017-11-20T18:15:32.893Z,4.40
2017-11-20T18:18:07.397Z,4.40
2017-11-20T18:20:42.007Z,4.30
2017-11-20T18:23:15.629Z,4.30
2017-11-20T18:25:50.188Z,4.30
2017-11-20T18:28:25.082Z,4.30
2017-11-20T18:30:58.885Z,4.30
2017-11-20T18:33:34.549Z,4.40
2017-11-20T18:36:09.003Z,4.30
2017-11-20T18:38:45.358Z,4.30
2017-11-20T18:41:20.203Z,4.30
2017-11-20T18:43:54.053Z,4.30
2017-11-20T18:46:28.558Z,4.30
2017-11-20T18:54:48.090Z,4.40
2017-11-20T18:57:23.208Z,4.30
2017-11-20T19:00:13.701Z,4.30
2017-11-20T19:03:08.836Z,4.30
2017-11-20T19:05:54.277Z,4.30
2017-11-20T19:14:46.271Z,4.30
2017-11-20T19:20:05.965Z,4.30
2017-11-20T19:22:39.628Z,4.30
2017-11-20T19:25:29.465Z,4.30
2017-11-20T19:28:08.264Z,4.30
2017-11-20T19:30:44.401Z,4.30
2017-11-20T19:41:17.641Z,4.40
2017-11-20T19:51:55.094Z,4.50
2017-11-20T19:54:28.800Z,4.50
2017-11-20T19:57:04.784Z,4.50
2017-11-20T19:59:38.325Z,4.50
2017-11-20T20:02:16.128Z,4.50
2017-11-20T20:05:04.533Z,4.40
2017-11-20T20:07:45.070Z,4.50
2017-11-20T20:10:18.843Z,4.50
2017-11-20T20:12:53.607Z,4.50
2017-11-20T20:15:39.496Z,4.50
2017-11-20T20:18:14.184Z,4.50
2017-11-20T20:33:21.138Z,4.50
2017-11-20T20:35:56.198Z,4.50
2017-11-20T20:38:29.964Z,4.50
2017-11-20T20:41:05.206Z,4.50
2017-11-20T20:43:40.694Z,4.60
2017-11-20T20:46:18.262Z,4.60
2017-11-20T20:48:52.817Z,4.60
2017-11-20T20:51:26.740Z,4.60
2017-11-20T20:54:01.154Z,4.60
2017-11-20T20:56:35.561Z,4.60
2017-11-20T20:59:09.311Z,4.60
2017-11-20T21:01:43.783Z,4.60
2017-11-20T21:04:17.422Z,4.60
2017-11-20T21:06:59.309Z,4.60
2017-11-20T21:09:38.633Z,4.60
2017-11-20T21:12:18.462Z,4.60
2017-11-20T21:14:52.865Z,4.60
2017-11-20T21:17:26.756Z,4.70
2017-11-20T21:20:00.455Z,4.70
2017-11-20T21:22:34.196Z,4.70
2017-11-20T21:25:09.450Z,4.60
2017-11-20T21:27:43.177Z,4.60
2017-11-20T21:30:17.558Z,4.70
2017-11-20T21:32:51.358Z,4.70
2017-11-20T21:35:25.553Z,4.70
2017-11-20T21:37:59.313Z,4.70
2017-11-20T21:40:33.333Z,4.70
2017-11-20T21:43:07.844Z,4.80
2017-11-20T21:45:42.232Z,4.80
2017-11-20T21:48:16.024Z,4.80
2017-11-20T21:50:49.605Z,4.80
2017-11-20T21:53:23.233Z,4.80
2017-11-20T21:55:56.876Z,4.90
2017-11-20T21:58:31.405Z,4.80
2017-11-20T22:01:05.169Z,4.80
2017-11-20T22:03:39.751Z,4.90
2017-11-20T22:06:13.575Z,4.90
2017-11-20T22:08:47.357Z,4.90
2017-11-20T22:11:21.119Z,4.90
2017-11-20T22:13:56.083Z,4.90
2017-11-20T22:16:29.850Z,4.90
2017-11-20T22:19:03.638Z,4.90
2017-11-20T22:21:37.310Z,4.90
2017-11-20T22:24:11.201Z,4.90
2017-11-20T22:26:44.962Z,4.90
2017-11-20T22:29:18.604Z,4.90
2017-11-20T22:31:52.326Z,4.90
2017-11-20T22:34:25.971Z,4.90
2017-11-20T22:36:59.548Z,4.90
2017-11-20T22:39:33.303Z,4.90
2017-11-20T22:42:07.016Z,4.90
2017-11-20T22:44:40.789Z,4.90
2017-11-20T22:47:15.485Z,4.90
2017-11-20T22:49:49.237Z,4.90
2017-11-20T22:52:22.999Z,4.90
2017-11-20T22:54:56.776Z,4.90
2017-11-20T22:57:31.201Z,4.90
2017-11-20T23:00:05.107Z,4.90
2017-11-20T23:02:39.821Z,4.90
2017-11-20T23:05:13.542Z,4.90
2017-11-20T23:07:47.378Z,4.90
2017-11-20T23:10:21.971Z,4.90
2017-11-20T23:12:56.474Z,4.80
2017-11-20T23:15:30.286Z,4.90
2017-11-20T23:18:04.474Z,4.90
2017-11-20T23:20:39.133Z,4.80
2017-11-20T23:23:12.792Z,4.90
2017-11-20T23:25:46.511Z,4.90
2017-11-20T23:28:20.257Z,4.90
2017-11-20T23:30:54.967Z,4.90
2017-11-20T23:33:29.029Z,4.90
2017-11-20T23:36:02.842Z,5.00
2017-11-20T23:38:36.506Z,5.00
2017-11-20T23:41:10.294Z,5.00
2017-11-20T23:43:44.972Z,5.00
2017-11-20T23:46:19.097Z,5.00
2017-11-20T23:48:52.793Z,5.10
2017-11-20T23:51:26.470Z,5.00
2017-11-20T23:54:00.199Z,5.00
2017-11-20T23:56:33.946Z,5.10
2017-11-20T23:59:08.428Z,5.20
